Time;durP1;ratioP1;P1;durP2;ratioP2;P2;SDS_P1;SDS_P2;PMS_P1;PMS_P2;Temp;Humidity;BMP_temperature;BMP_pressure;BME280_temperature;BME280_humidity;BME280_pressure;Samples;Min_cycle;Max_cycle;Signal;HPM_P1;HPM_P2
2022/06/13 00:01:46;;;;;;;10.23;5.15;;;8.90;99.90;;;;;;5091294;28;20376;-78
2022/06/13 00:07:35;;;;;;;9.13;4.60;;;9.30;99.90;;;;;;5090932;28;20417;-79
2022/06/13 00:10:02;;;;;;;8.88;4.60;;;9.50;99.90;;;;;;5090812;28;20407;-80
2022/06/13 00:12:30;;;;;;;9.23;4.60;;;9.60;99.90;;;;;;5090570;28;20879;-84
2022/06/13 00:14:57;;;;;;;8.07;4.40;;;9.60;99.90;;;;;;5090672;28;20372;-81
2022/06/13 00:17:25;;;;;;;6.75;3.42;;;9.70;99.90;;;;;;5090202;28;20915;-85
2022/06/13 00:19:52;;;;;;;4.85;3.13;;;9.90;99.90;;;;;;5090434;28;20384;-84
2022/06/13 00:22:20;;;;;;;4.80;2.90;;;10.00;99.90;;;;;;5090145;28;20377;-85
2022/06/13 00:24:47;;;;;;;4.30;3.05;;;10.20;99.90;;;;;;5090240;28;20721;-83
2022/06/13 00:27:15;;;;;;;3.97;2.90;;;10.30;99.90;;;;;;5090270;28;20800;-83
2022/06/13 00:29:44;;;;;;;4.07;2.80;;;10.30;99.90;;;;;;5090054;28;20376;-86
2022/06/13 00:32:11;;;;;;;3.73;2.50;;;10.40;99.90;;;;;;5090432;28;20860;-81
2022/06/13 00:34:38;;;;;;;4.38;2.70;;;10.50;99.90;;;;;;5090594;28;20369;-81
2022/06/13 00:37:05;;;;;;;3.45;2.30;;;10.70;99.90;;;;;;5090140;28;20423;-82
2022/06/13 00:39:32;;;;;;;3.70;2.10;;;10.90;99.90;;;;;;5090193;28;20415;-83
2022/06/13 00:42:00;;;;;;;3.03;1.70;;;11.00;99.90;;;;;;5090308;28;20368;-88
2022/06/13 00:44:36;;;;;;;2.80;1.60;;;11.00;99.90;;;;;;5090228;28;20773;-88
2022/06/13 00:47:04;;;;;;;2.25;1.80;;;11.30;99.90;;;;;;5090410;28;20401;-84
2022/06/13 00:49:49;;;;;;;2.65;1.60;;;11.50;99.90;;;;;;5089934;28;20443;-81
2022/06/13 00:52:22;;;;;;;4.28;2.17;;;11.60;99.90;;;;;;5090121;28;20379;-81
2022/06/13 00:54:52;;;;;;;3.08;1.90;;;11.70;99.90;;;;;;5090064;28;20453;-86
2022/06/13 00:57:22;;;;;;;1.63;1.50;;;11.80;99.90;;;;;;5090053;28;20368;-88
2022/06/13 00:59:54;;;;;;;2.47;1.50;;;11.90;99.90;;;;;;5090436;28;20744;-83
2022/06/13 01:02:22;;;;;;;1.40;1.00;;;12.10;99.90;;;;;;5089982;28;20828;-85
2022/06/13 01:04:52;;;;;;;1.40;1.30;;;12.10;99.90;;;;;;5090169;28;20459;-88
2022/06/13 01:07:21;;;;;;;1.92;1.40;;;12.20;99.90;;;;;;5090735;28;20848;-85
2022/06/13 01:12:37;;;;;;;1.77;1.52;;;12.40;99.90;;;;;;5090769;28;20402;-81
2022/06/13 01:15:37;;;;;;;1.35;1.10;;;12.60;99.90;;;;;;5090432;28;20841;-90
2022/06/13 01:18:13;;;;;;;2.03;1.30;;;12.60;99.90;;;;;;5089993;28;20391;-82
2022/06/13 01:20:45;;;;;;;3.08;1.10;;;12.60;99.90;;;;;;5090132;28;20420;-83
2022/06/13 01:23:44;;;;;;;2.90;1.60;;;12.60;99.90;;;;;;5090200;28;20689;-89
2022/06/13 01:26:27;;;;;;;3.00;1.40;;;12.70;99.90;;;;;;4988145;28;20381;-87
2022/06/13 01:29:12;;;;;;;0.70;0.70;;;12.90;99.90;;;;;;4987990;28;20937;-87
2022/06/13 01:31:47;;;;;;;1.45;0.93;;;13.10;98.60;;;;;;4992613;28;20373;-89
2022/06/13 01:34:19;;;;;;;2.25;1.02;;;13.40;97.20;;;;;;4989296;28;21003;-80
2022/06/13 01:37:13;;;;;;;3.17;1.10;;;13.50;96.40;;;;;;5005458;28;20418;-82
2022/06/13 01:40:13;;;;;;;1.10;0.93;;;13.30;97.20;;;;;;5006752;28;20506;-81
2022/06/13 01:43:08;;;;;;;3.45;1.20;;;13.30;97.70;;;;;;5007870;28;20452;-82
2022/06/13 01:45:42;;;;;;;2.00;0.98;;;13.50;95.20;;;;;;4930467;29;20401;-83
2022/06/13 01:48:38;;;;;;;1.90;1.17;;;13.50;96.10;;;;;;4930450;29;20374;-89
2022/06/13 01:51:11;;;;;;;1.75;1.20;;;13.50;96.30;;;;;;4931514;29;20389;-82
2022/06/13 01:53:53;;;;;;;2.20;1.05;;;13.50;96.90;;;;;;4930498;29;20400;-87
2022/06/13 01:56:31;;;;;;;1.90;1.20;;;13.60;95.50;;;;;;4930517;29;20474;-85
2022/06/13 01:59:21;;;;;;;2.10;1.25;;;13.70;96.90;;;;;;4930452;29;20976;-83
2022/06/13 02:02:04;;;;;;;1.25;1.13;;;13.90;95.90;;;;;;4966491;28;20398;-82
2022/06/13 02:04:53;;;;;;;1.63;1.17;;;13.90;94.30;;;;;;5007444;28;20446;-90
2022/06/13 02:07:27;;;;;;;2.33;1.30;;;13.90;94.50;;;;;;5007612;28;20371;-82
2022/06/13 02:10:07;;;;;;;1.80;1.40;;;13.90;95.00;;;;;;5008147;28;20392;-89
2022/06/13 02:12:36;;;;;;;1.20;1.10;;;13.90;94.20;;;;;;5007767;28;20451;-91
2022/06/13 02:15:17;;;;;;;2.88;1.63;;;13.90;95.10;;;;;;5007070;28;20390;-79
2022/06/13 02:17:53;;;;;;;2.30;1.10;;;14.10;95.30;;;;;;5007999;28;20387;-89
2022/06/13 02:20:25;;;;;;;3.90;1.17;;;14.10;93.40;;;;;;5007244;28;20422;-85
2022/06/13 02:23:01;;;;;;;2.80;1.10;;;14.00;93.50;;;;;;5066824;28;20867;-82
2022/06/13 02:25:47;;;;;;;3.97;1.25;;;14.00;93.40;;;;;;5089042;28;20456;-87
2022/06/13 02:28:21;;;;;;;1.73;1.00;;;14.10;94.20;;;;;;5091673;28;20829;-93
2022/06/13 02:31:13;;;;;;;1.42;0.88;;;14.20;93.30;;;;;;5091234;28;20444;-92
2022/06/13 02:33:52;;;;;;;2.47;1.00;;;14.50;92.20;;;;;;5090940;28;20538;-81
2022/06/13 02:36:42;;;;;;;1.42;0.82;;;14.50;92.00;;;;;;5087122;28;20472;-89
2022/06/13 02:39:19;;;;;;;1.45;0.90;;;14.30;91.50;;;;;;5088575;28;20471;-92
2022/06/13 02:41:56;;;;;;;1.55;0.85;;;14.10;92.10;;;;;;5089701;28;20400;-88
2022/06/13 02:44:36;;;;;;;0.80;0.80;;;14.20;92.70;;;;;;5088792;28;20368;-86
2022/06/13 02:47:21;;;;;;;1.55;0.80;;;14.30;91.30;;;;;;5088907;28;20364;-81
2022/06/13 02:50:15;;;;;;;1.05;0.80;;;14.50;91.80;;;;;;5056776;28;20379;-87
2022/06/13 02:52:59;;;;;;;1.27;0.90;;;14.80;91.00;;;;;;5088710;28;20356;-87
2022/06/13 02:55:27;;;;;;;0.73;0.70;;;14.80;90.30;;;;;;5088950;28;20371;-91
2022/06/13 02:58:09;;;;;;;1.67;0.80;;;14.70;90.60;;;;;;5093074;28;20392;-93
2022/06/13 03:00:54;;;;;;;1.27;0.77;;;14.60;90.30;;;;;;5097655;28;20401;-93
2022/06/13 03:03:34;;;;;;;1.08;0.80;;;14.70;90.00;;;;;;5089335;28;20768;-88
2022/06/13 03:06:05;;;;;;;1.20;0.70;;;14.50;90.00;;;;;;5088465;28;20375;-88
2022/06/13 03:08:50;;;;;;;1.35;0.70;;;14.70;87.70;;;;;;5088443;28;20373;-79
2022/06/13 03:11:40;;;;;;;0.70;0.70;;;14.70;87.50;;;;;;5089480;28;20848;-89
2022/06/13 03:14:19;;;;;;;2.83;0.70;;;14.70;85.90;;;;;;5091193;28;20372;-82
2022/06/13 03:16:57;;;;;;;1.30;1.00;;;14.70;84.50;;;;;;5092332;28;20371;-84
2022/06/13 03:19:38;;;;;;;2.53;1.20;;;14.80;86.80;;;;;;5091503;28;20400;-85
2022/06/13 03:22:30;;;;;;;1.30;0.80;;;15.00;83.50;;;;;;5091653;28;20369;-84
2022/06/13 03:25:32;;;;;;;1.60;0.90;;;14.90;82.70;;;;;;5091533;28;20554;-86
2022/06/13 03:28:08;;;;;;;1.27;0.80;;;14.90;83.00;;;;;;5080784;28;20441;-84
2022/06/13 03:30:43;;;;;;;1.88;1.05;;;15.00;84.20;;;;;;5091943;28;20364;-86
2022/06/13 03:36:14;;;;;;;1.95;0.90;;;15.10;83.50;;;;;;5091182;28;20419;-86
2022/06/13 03:39:13;;;;;;;1.80;0.65;;;15.20;83.90;;;;;;5091144;28;20399;-84
2022/06/13 03:42:16;;;;;;;2.00;1.23;;;15.10;81.30;;;;;;5085054;28;20440;-85
2022/06/13 03:44:56;;;;;;;1.60;0.70;;;15.10;81.30;;;;;;5091186;28;20364;-85
2022/06/13 03:47:27;;;;;;;1.63;0.82;;;15.10;83.20;;;;;;5091629;28;20434;-86
2022/06/13 03:49:59;;;;;;;1.25;0.90;;;15.00;82.70;;;;;;5091786;28;20451;-87
2022/06/13 03:52:30;;;;;;;1.30;0.70;;;15.00;83.00;;;;;;5091661;28;20362;-86
2022/06/13 03:55:10;;;;;;;1.23;0.70;;;15.10;80.80;;;;;;5091396;28;20390;-85
2022/06/13 03:57:55;;;;;;;1.17;0.70;;;15.10;79.10;;;;;;5091330;28;20400;-84
2022/06/13 04:00:32;;;;;;;2.25;0.60;;;15.00;79.90;;;;;;5091193;28;20702;-87
2022/06/13 04:03:01;;;;;;;1.00;0.70;;;15.00;79.60;;;;;;5090927;28;20843;-87
2022/06/13 04:05:42;;;;;;;0.80;0.60;;;15.20;79.40;;;;;;5092537;28;20387;-84
2022/06/13 04:08:13;;;;;;;1.02;0.50;;;15.30;79.40;;;;;;5093089;28;20361;-84
2022/06/13 04:11:09;;;;;;;2.15;0.80;;;15.60;79.00;;;;;;5094635;28;20368;-84
2022/06/13 04:13:44;;;;;;;1.05;0.80;;;15.80;77.80;;;;;;5094336;28;20368;-88
2022/06/13 04:16:20;;;;;;;1.13;0.80;;;15.90;76.60;;;;;;5091719;28;20403;-85
2022/06/13 04:19:19;;;;;;;0.80;0.80;;;16.00;75.50;;;;;;5091518;28;20415;-85
2022/06/13 04:21:52;;;;;;;1.80;0.70;;;16.00;74.70;;;;;;5093050;28;20376;-87
2022/06/13 04:24:55;;;;;;;2.42;0.75;;;16.00;74.30;;;;;;5091775;28;20372;-84
2022/06/13 04:27:46;;;;;;;1.88;0.70;;;16.00;75.10;;;;;;5091131;28;20368;-85
2022/06/13 04:30:26;;;;;;;0.60;0.60;;;16.10;75.10;;;;;;5093814;28;20860;-92
2022/06/13 04:33:05;;;;;;;2.60;0.70;;;16.10;73.60;;;;;;5090931;28;20849;-86
2022/06/13 04:35:34;;;;;;;1.15;0.60;;;16.00;72.10;;;;;;5090297;28;20908;-86
2022/06/13 04:38:05;;;;;;;1.63;0.60;;;15.90;72.70;;;;;;5090114;28;20384;-90
2022/06/13 04:40:35;;;;;;;0.80;0.70;;;15.80;75.00;;;;;;5089929;28;20368;-84
2022/06/13 04:43:06;;;;;;;1.38;0.77;;;16.00;74.40;;;;;;5090150;28;20404;-86
2022/06/13 04:45:44;;;;;;;1.30;0.70;;;16.00;75.30;;;;;;5091246;28;20379;-88
2022/06/13 04:48:12;;;;;;;0.93;0.80;;;16.00;75.40;;;;;;5090428;28;20365;-84
2022/06/13 04:50:44;;;;;;;1.90;1.10;;;16.00;73.20;;;;;;5090115;28;20383;-84
2022/06/13 04:53:29;;;;;;;1.65;1.15;;;16.10;72.50;;;;;;5089809;28;20720;-84
2022/06/13 04:55:59;;;;;;;8.80;1.60;;;16.50;71.10;;;;;;5090102;28;20369;-85
2022/06/13 04:58:32;;;;;;;4.33;1.30;;;16.90;70.40;;;;;;5071426;28;20404;-87
2022/06/13 05:01:14;;;;;;;4.40;1.03;;;17.10;70.60;;;;;;5089838;28;20375;-89
2022/06/13 05:03:43;;;;;;;2.03;1.20;;;16.80;68.20;;;;;;5090337;28;20379;-88
2022/06/13 05:06:27;;;;;;;1.50;0.90;;;16.60;70.70;;;;;;5089546;28;20369;-87
2022/06/13 05:09:08;;;;;;;7.93;4.40;;;16.30;71.10;;;;;;5089253;28;20373;-83
2022/06/13 05:11:47;;;;;;;6.05;1.50;;;16.10;71.10;;;;;;5089966;28;20848;-84
2022/06/13 05:14:20;;;;;;;2.10;1.30;;;16.00;77.30;;;;;;5089478;28;20396;-84
2022/06/13 05:17:12;;;;;;;3.25;2.10;;;15.90;76.30;;;;;;5089879;28;20377;-84
2022/06/13 05:19:55;;;;;;;6.20;2.80;;;15.60;78.80;;;;;;5089518;28;20500;-85
2022/06/13 05:22:32;;;;;;;2.60;1.60;;;15.60;85.00;;;;;;5089350;28;20361;-84
2022/06/13 05:25:17;;;;;;;2.20;1.38;;;15.60;84.40;;;;;;5088969;28;20380;-84
2022/06/13 05:27:44;;;;;;;2.28;1.48;;;15.60;74.20;;;;;;5089383;28;20364;-84
2022/06/13 05:30:16;;;;;;;4.05;1.80;;;15.40;75.30;;;;;;5089180;28;20874;-84
2022/06/13 05:32:44;;;;;;;11.95;6.65;;;15.30;78.70;;;;;;5089853;28;20381;-83
2022/06/13 05:35:21;;;;;;;7.28;4.03;;;15.10;78.80;;;;;;5091698;28;20397;-83
2022/06/13 05:37:50;;;;;;;5.75;2.65;;;15.00;79.90;;;;;;5090197;28;20400;-83
2022/06/13 05:40:20;;;;;;;2.17;1.60;;;14.80;81.80;;;;;;5089278;28;20880;-83
2022/06/13 05:42:49;;;;;;;2.17;1.38;;;14.70;79.00;;;;;;5089318;28;20376;-82
2022/06/13 05:45:18;;;;;;;2.28;1.40;;;14.60;79.50;;;;;;5089506;28;20466;-84
2022/06/13 05:47:48;;;;;;;1.77;1.33;;;14.50;79.30;;;;;;5089608;28;20936;-84
2022/06/13 05:50:22;;;;;;;1.90;1.23;;;14.50;82.50;;;;;;5089369;28;20425;-87
2022/06/13 05:52:49;;;;;;;2.10;1.20;;;14.50;80.20;;;;;;5070739;28;20380;-83
2022/06/13 05:55:16;;;;;;;2.80;1.30;;;14.50;83.10;;;;;;5089255;28;20371;-84
2022/06/13 05:57:44;;;;;;;10.63;7.97;;;14.50;82.50;;;;;;5088755;28;20393;-88
2022/06/13 06:00:22;;;;;;;4.78;3.13;;;14.50;81.50;;;;;;5084819;28;20391;-82
2022/06/13 06:02:49;;;;;;;1.60;1.42;;;14.50;82.80;;;;;;5093211;28;20372;-85
2022/06/13 06:05:17;;;;;;;2.40;1.95;;;14.60;81.60;;;;;;5091934;28;20383;-82
2022/06/13 06:07:44;;;;;;;2.83;1.73;;;14.50;81.70;;;;;;5089131;28;20373;-86
2022/06/13 06:10:19;;;;;;;3.28;1.45;;;14.50;84.00;;;;;;5090525;28;20388;-84
2022/06/13 06:12:46;;;;;;;2.30;1.90;;;14.40;83.60;;;;;;5088871;28;20380;-83
2022/06/13 06:15:13;;;;;;;3.45;1.40;;;14.40;84.50;;;;;;5088576;28;20380;-83
2022/06/13 06:17:42;;;;;;;1.50;1.13;;;14.50;81.10;;;;;;5089801;28;20365;-88
2022/06/13 06:20:16;;;;;;;2.50;1.43;;;14.50;78.10;;;;;;5089785;28;20383;-87
2022/06/13 06:22:43;;;;;;;2.03;1.70;;;14.40;80.60;;;;;;5090617;28;20388;-86
2022/06/13 06:25:11;;;;;;;1.95;1.60;;;14.20;81.30;;;;;;5072166;28;20441;-86
2022/06/13 06:27:38;;;;;;;7.43;5.82;;;14.10;83.50;;;;;;5090562;28;20365;-86
2022/06/13 06:30:07;;;;;;;2.60;2.40;;;13.80;83.90;;;;;;5090510;28;20729;-87
2022/06/13 06:32:35;;;;;;;8.25;5.45;;;13.60;85.10;;;;;;5074084;28;20389;-88
2022/06/13 06:35:02;;;;;;;7.20;5.10;;;13.50;88.30;;;;;;5092812;28;20400;-87
2022/06/13 06:37:29;;;;;;;21.85;18.52;;;13.40;87.00;;;;;;5090162;28;20451;-84
2022/06/13 06:39:58;;;;;;;14.75;11.68;;;13.40;88.20;;;;;;5089952;28;20550;-85
2022/06/13 06:42:26;;;;;;;27.67;22.00;;;13.30;88.50;;;;;;5090473;28;20862;-86
2022/06/13 06:44:53;;;;;;;24.88;20.63;;;13.10;90.60;;;;;;5090164;28;20379;-84
2022/06/13 06:47:20;;;;;;;74.43;59.92;;;12.90;92.50;;;;;;5089101;28;20931;-85
2022/06/13 06:49:48;;;;;;;170.63;137.48;;;12.70;95.20;;;;;;5093588;28;20431;-84
2022/06/13 06:52:15;;;;;;;180.32;146.93;;;12.50;96.30;;;;;;5092573;28;20372;-83
2022/06/13 07:00:13;;;;;;;200.77;169.13;;;12.00;99.90;;;;;;5095974;28;20375;-84
2022/06/13 07:02:40;;;;;;;196.68;164.85;;;11.70;99.90;;;;;;5094595;28;20388;-82
2022/06/13 07:05:08;;;;;;;116.13;94.37;;;11.60;99.90;;;;;;5092452;28;20371;-82
2022/06/13 07:07:36;;;;;;;63.30;49.30;;;11.50;99.90;;;;;;5091921;28;20450;-82
2022/06/13 07:10:03;;;;;;;41.33;31.10;;;11.40;99.90;;;;;;5092092;28;20369;-82
2022/06/13 07:12:30;;;;;;;33.67;24.55;;;11.30;99.90;;;;;;5092024;28;20447;-80
2022/06/13 07:14:57;;;;;;;26.50;19.50;;;11.20;99.90;;;;;;5092097;28;20451;-84
2022/06/13 07:17:26;;;;;;;24.15;17.88;;;11.10;99.90;;;;;;5092092;28;20372;-82
2022/06/13 07:19:53;;;;;;;12.43;10.15;;;11.00;99.90;;;;;;5092606;28;20436;-83
2022/06/13 07:22:23;;;;;;;9.55;7.63;;;10.90;99.90;;;;;;5091974;28;20406;-81
2022/06/13 07:24:51;;;;;;;10.05;6.88;;;10.90;99.90;;;;;;5092243;28;20383;-81
2022/06/13 07:27:19;;;;;;;8.57;6.10;;;10.80;99.90;;;;;;5093795;28;20368;-84
2022/06/13 07:29:46;;;;;;;10.20;8.52;;;10.70;99.90;;;;;;5093328;28;20882;-82
2022/06/13 07:32:16;;;;;;;6.07;4.37;;;10.60;99.90;;;;;;5094065;28;20448;-85
2022/06/13 07:34:45;;;;;;;7.60;5.18;;;10.50;99.90;;;;;;5092231;28;20372;-83
2022/06/13 07:38:16;;;;;;;6.30;4.77;;;10.40;99.90;;;;;;5091857;28;20392;-83
2022/06/13 07:40:06;;;;;;;8.00;4.78;;;10.30;99.90;;;;;;5091095;28;20407;-83
2022/06/13 07:42:38;;;;;;;5.72;4.60;;;10.20;99.90;;;;;;5091477;28;20364;-86
2022/06/13 07:45:06;;;;;;;5.28;3.90;;;10.10;99.90;;;;;;5091772;28;20381;-81
2022/06/13 07:47:39;;;;;;;7.60;4.90;;;10.00;99.90;;;;;;5091441;28;20368;-84
2022/06/13 07:50:07;;;;;;;7.50;6.07;;;9.90;99.90;;;;;;5091963;28;20368;-84
2022/06/13 07:52:34;;;;;;;8.35;7.10;;;9.90;99.90;;;;;;5091040;28;20848;-85
2022/06/13 07:55:05;;;;;;;9.30;6.35;;;9.80;99.90;;;;;;5073616;28;20464;-83
2022/06/13 07:57:32;;;;;;;7.40;5.28;;;9.70;99.90;;;;;;5091933;28;20373;-85
2022/06/13 08:00:00;;;;;;;7.70;6.38;;;9.70;99.90;;;;;;5090048;28;20392;-82
2022/06/13 08:02:31;;;;;;;8.43;6.68;;;9.70;99.90;;;;;;5091046;28;20793;-80
2022/06/13 08:04:58;;;;;;;8.65;6.78;;;9.70;99.90;;;;;;5091165;28;20360;-81
2022/06/13 08:07:26;;;;;;;11.18;7.75;;;9.60;99.90;;;;;;5091039;28;20384;-81
2022/06/13 08:09:54;;;;;;;10.63;8.02;;;9.60;99.90;;;;;;5090949;28;20378;-83
2022/06/13 08:12:22;;;;;;;12.27;10.27;;;9.50;99.90;;;;;;5091089;28;20380;-86
2022/06/13 08:14:50;;;;;;;12.52;10.95;;;9.50;99.90;;;;;;5090768;28;20391;-87
2022/06/13 08:17:20;;;;;;;12.60;10.90;;;9.40;99.90;;;;;;5091167;28;20915;-81
2022/06/13 08:19:49;;;;;;;14.40;10.13;;;9.40;99.90;;;;;;5091161;28;20860;-82
2022/06/13 08:22:18;;;;;;;13.10;9.85;;;9.30;99.90;;;;;;5090468;28;20365;-81
2022/06/13 08:24:46;;;;;;;13.23;9.63;;;9.30;99.90;;;;;;5091717;28;20376;-90
2022/06/13 08:27:13;;;;;;;13.30;10.70;;;9.20;99.90;;;;;;5091757;28;20453;-82
2022/06/13 08:29:40;;;;;;;12.77;9.70;;;9.10;99.90;;;;;;5093385;28;20509;-82
2022/06/13 08:32:07;;;;;;;12.30;9.30;;;9.10;99.90;;;;;;5091450;28;20425;-89
2022/06/13 08:34:35;;;;;;;11.45;9.20;;;9.10;99.90;;;;;;5090858;28;20383;-83
2022/06/13 08:37:02;;;;;;;12.17;9.53;;;9.00;99.90;;;;;;5090017;28;20895;-80
2022/06/13 08:39:29;;;;;;;11.13;9.38;;;8.90;99.90;;;;;;5090694;28;20485;-82
2022/06/13 08:41:59;;;;;;;14.30;10.27;;;8.90;99.90;;;;;;5091015;28;20366;-83
2022/06/13 08:44:38;;;;;;;14.27;9.70;;;8.90;99.90;;;;;;5091934;28;20472;-83
2022/06/13 08:47:23;;;;;;;12.55;9.18;;;8.80;99.90;;;;;;5090505;28;20930;-82
2022/06/13 08:49:55;;;;;;;15.65;10.20;;;8.90;99.90;;;;;;5090849;28;20434;-83
2022/06/13 08:52:38;;;;;;;15.03;11.17;;;8.90;99.90;;;;;;5090511;28;20364;-84
2022/06/13 08:55:26;;;;;;;14.15;10.43;;;8.90;99.90;;;;;;5090235;28;20368;-84
2022/06/13 08:58:04;;;;;;;18.73;12.82;;;8.90;99.90;;;;;;5090733;28;20391;-84
2022/06/13 09:00:33;;;;;;;20.25;14.98;;;8.80;99.90;;;;;;5090586;28;20769;-81
2022/06/13 09:03:15;;;;;;;24.05;17.23;;;8.80;99.90;;;;;;5087069;28;20384;-81
2022/06/13 09:06:08;;;;;;;27.35;19.02;;;8.70;99.90;;;;;;5089910;28;20729;-81
2022/06/13 09:08:43;;;;;;;23.10;15.80;;;8.60;99.90;;;;;;5089613;28;20361;-81
2022/06/13 09:11:26;;;;;;;23.47;16.60;;;8.50;99.90;;;;;;5089774;28;20376;-81
2022/06/13 09:17:21;;;;;;;28.55;16.20;;;8.30;99.90;;;;;;5089666;28;20409;-82
2022/06/13 09:20:28;;;;;;;23.05;14.00;;;8.20;99.90;;;;;;5093356;28;20946;-82
2022/06/13 09:22:57;;;;;;;19.88;14.80;;;8.10;99.90;;;;;;4988430;28;20415;-81
2022/06/13 09:25:45;;;;;;;19.27;13.38;;;8.00;99.90;;;;;;4990884;28;20384;-81
2022/06/13 09:28:45;;;;;;;20.03;13.37;;;8.00;99.90;;;;;;4988353;28;20457;-82
2022/06/13 09:31:26;;;;;;;18.50;12.73;;;7.90;99.90;;;;;;4892562;29;20430;-81
2022/06/13 09:34:00;;;;;;;16.35;11.55;;;7.80;99.90;;;;;;4891874;29;20397;-81
2022/06/13 09:36:36;;;;;;;12.93;9.02;;;7.80;99.90;;;;;;4891701;29;20471;-81
2022/06/13 09:39:11;;;;;;;10.93;6.88;;;7.90;99.90;;;;;;4891869;29;20434;-82
2022/06/13 09:42:03;;;;;;;9.82;6.60;;;8.00;99.90;;;;;;4892410;29;20390;-82
2022/06/13 09:44:59;;;;;;;7.85;4.50;;;8.10;99.90;;;;;;4892715;29;20480;-81
2022/06/13 09:47:32;;;;;;;5.45;4.05;;;8.20;99.90;;;;;;4818281;29;20889;-82
2022/06/13 09:50:34;;;;;;;5.60;3.90;;;8.20;99.90;;;;;;4818122;29;20408;-83
2022/06/13 09:53:37;;;;;;;5.63;4.20;;;8.10;99.90;;;;;;4818042;29;20456;-81
2022/06/13 09:56:20;;;;;;;7.40;4.25;;;8.00;99.90;;;;;;4836344;29;20395;-83
2022/06/13 09:59:13;;;;;;;6.38;4.20;;;7.90;99.90;;;;;;4910733;29;20502;-81
2022/06/13 10:01:45;;;;;;;8.13;4.28;;;7.80;99.90;;;;;;4836665;29;20887;-83
2022/06/13 10:04:30;;;;;;;8.90;5.30;;;7.70;99.90;;;;;;4836254;29;20407;-82
2022/06/13 10:07:19;;;;;;;11.82;8.90;;;7.60;99.90;;;;;;4878450;29;20384;-81
2022/06/13 10:09:58;;;;;;;28.20;24.13;;;7.50;99.90;;;;;;4910215;29;20404;-81
2022/06/13 10:12:34;;;;;;;38.53;32.28;;;7.40;99.90;;;;;;4894442;29;20388;-83
2022/06/13 10:15:22;;;;;;;55.72;48.53;;;7.40;99.90;;;;;;4910617;29;20392;-83
2022/06/13 10:18:24;;;;;;;31.13;25.48;;;7.30;99.90;;;;;;4910297;29;20419;-82
2022/06/13 10:21:06;;;;;;;21.73;16.73;;;7.20;99.90;;;;;;4910238;29;20467;-81
2022/06/13 10:24:08;;;;;;;26.85;22.20;;;7.10;99.90;;;;;;4948985;28;20407;-82
2022/06/13 10:26:53;;;;;;;45.25;35.03;;;7.00;99.90;;;;;;4991055;28;20419;-82
2022/06/13 10:29:41;;;;;;;87.38;64.55;;;7.00;99.90;;;;;;4991525;28;20460;-82
2022/06/13 10:32:28;;;;;;;90.03;67.13;;;6.90;99.90;;;;;;4991302;28;20387;-82
2022/06/13 10:35:25;;;;;;;57.92;44.85;;;6.90;99.90;;;;;;4894887;29;20381;-81
2022/06/13 10:38:07;;;;;;;45.55;32.72;;;6.90;99.90;;;;;;4910566;28;20402;-82
2022/06/13 10:40:37;;;;;;;35.03;26.02;;;6.80;99.90;;;;;;4972143;28;20410;-82
2022/06/13 10:43:05;;;;;;;29.92;21.25;;;6.80;99.90;;;;;;4971590;28;20878;-83
2022/06/13 10:45:36;;;;;;;24.92;18.90;;;6.70;99.90;;;;;;4971240;28;21055;-81
2022/06/13 10:48:12;;;;;;;22.85;16.35;;;6.70;99.90;;;;;;4971641;28;20399;-82
2022/06/13 10:50:59;;;;;;;23.25;15.73;;;6.70;99.90;;;;;;4971277;28;20914;-81
2022/06/13 10:57:07;;;;;;;33.03;24.83;;;6.60;99.90;;;;;;4913614;29;20744;-82
2022/06/13 10:59:37;;;;;;;26.70;19.23;;;6.60;99.90;;;;;;4913603;29;20415;-82
2022/06/13 11:02:21;;;;;;;23.50;17.20;;;6.60;99.90;;;;;;4913642;29;20885;-82
2022/06/13 11:05:11;;;;;;;24.75;17.42;;;6.50;99.90;;;;;;4913604;29;20392;-82
2022/06/13 11:07:44;;;;;;;24.75;17.88;;;6.40;99.90;;;;;;4913837;29;20396;-83
2022/06/13 11:10:29;;;;;;;21.85;15.80;;;6.30;99.90;;;;;;4915882;29;20383;-82
2022/06/13 11:12:56;;;;;;;17.65;13.88;;;6.20;99.90;;;;;;5015326;28;20377;-81
2022/06/13 11:24:42;;;;;;;14.87;11.63;;;6.10;99.90;;;;;;5009624;28;20417;-82
2022/06/13 11:27:42;;;;;;;12.50;10.20;;;6.10;99.90;;;;;;5009895;28;20443;-82
2022/06/13 11:30:40;;;;;;;13.33;9.47;;;6.10;99.90;;;;;;5009496;28;20390;-82
2022/06/13 11:33:15;;;;;;;12.68;9.20;;;6.10;99.90;;;;;;5014250;28;20377;-82
2022/06/13 11:35:56;;;;;;;11.00;9.63;;;6.10;99.90;;;;;;5036196;28;20410;-83
2022/06/13 11:38:37;;;;;;;14.27;10.03;;;6.10;99.90;;;;;;5048871;28;20487;-83
2022/06/13 11:41:28;;;;;;;11.27;9.32;;;6.00;99.90;;;;;;5048941;28;20368;-82
2022/06/13 11:44:17;;;;;;;16.65;13.13;;;6.00;99.90;;;;;;5048898;28;20391;-82
2022/06/13 11:46:53;;;;;;;27.60;24.63;;;6.00;99.90;;;;;;5048913;28;20387;-82
2022/06/13 11:49:23;;;;;;;21.90;18.33;;;5.90;99.90;;;;;;5048712;28;20390;-82
2022/06/13 11:52:13;;;;;;;18.15;16.25;;;5.70;99.90;;;;;;5049265;28;20388;-83
2022/06/13 11:54:55;;;;;;;15.68;13.05;;;5.80;99.90;;;;;;5053068;28;20387;-82
2022/06/13 11:57:31;;;;;;;17.48;13.18;;;5.80;99.90;;;;;;5090942;28;20418;-82
2022/06/13 12:00:01;;;;;;;16.55;13.55;;;5.80;99.90;;;;;;5090832;28;20454;-83
2022/06/13 12:02:50;;;;;;;16.42;12.98;;;5.70;99.90;;;;;;5091392;28;20444;-81
2022/06/13 12:05:32;;;;;;;14.95;13.05;;;5.70;99.90;;;;;;5091460;28;20484;-82
2022/06/13 12:08:16;;;;;;;13.85;12.30;;;5.70;99.90;;;;;;5090293;28;20377;-82
2022/06/13 12:11:00;;;;;;;14.77;12.43;;;5.70;99.90;;;;;;5091040;28;20418;-81
2022/06/13 12:13:30;;;;;;;15.15;12.45;;;5.70;99.90;;;;;;5091126;28;20447;-83
2022/06/13 12:16:16;;;;;;;14.05;11.95;;;5.60;99.90;;;;;;5090533;28;20396;-81
2022/06/13 12:19:43;;;;;;;13.38;10.95;;;5.50;99.90;;;;;;5090352;28;20416;-82
2022/06/13 12:22:31;;;;;;;12.38;9.57;;;5.40;99.90;;;;;;5008562;28;20371;-81
2022/06/13 12:25:24;;;;;;;11.50;9.75;;;5.40;99.90;;;;;;5009033;28;20367;-82
2022/06/13 12:28:18;;;;;;;11.63;9.05;;;5.50;99.90;;;;;;5009008;28;20890;-83
2022/06/13 12:31:18;;;;;;;12.90;9.73;;;5.40;99.90;;;;;;5008436;28;20383;-82
2022/06/13 12:33:57;;;;;;;12.07;9.60;;;5.40;99.90;;;;;;5008502;28;20371;-82
2022/06/13 12:36:39;;;;;;;13.48;10.10;;;5.30;99.90;;;;;;5008193;28;20441;-83
2022/06/13 12:39:17;;;;;;;11.65;9.75;;;5.20;99.90;;;;;;5008235;28;20419;-82
2022/06/13 12:42:06;;;;;;;12.45;9.98;;;5.10;99.90;;;;;;5008825;28;20375;-82
2022/06/13 12:45:03;;;;;;;12.50;9.00;;;5.20;99.90;;;;;;5008728;28;20396;-82
2022/06/13 12:48:00;;;;;;;10.68;8.43;;;5.20;99.90;;;;;;5007696;28;20383;-82
2022/06/13 12:50:48;;;;;;;9.75;8.13;;;5.20;99.90;;;;;;5007978;28;20483;-83
2022/06/13 12:53:36;;;;;;;11.30;8.70;;;5.30;99.90;;;;;;5007855;28;20371;-83
2022/06/13 12:56:28;;;;;;;12.18;10.13;;;5.30;99.90;;;;;;5008184;28;20384;-83
2022/06/13 12:58:55;;;;;;;13.60;11.15;;;5.30;99.90;;;;;;5035364;28;20809;-83
2022/06/13 13:01:30;;;;;;;12.77;10.05;;;5.20;99.90;;;;;;5089634;28;20408;-82
2022/06/13 13:04:18;;;;;;;11.10;9.30;;;5.20;99.90;;;;;;5089792;28;20364;-83
2022/06/13 13:07:00;;;;;;;19.73;15.00;;;5.10;99.90;;;;;;5089900;28;20357;-84
2022/06/13 13:10:01;;;;;;;21.60;15.90;;;5.10;99.90;;;;;;5089893;28;20877;-82
2022/06/13 13:12:59;;;;;;;25.70;18.67;;;5.10;99.90;;;;;;5088919;28;20363;-83
2022/06/13 13:15:43;;;;;;;24.42;18.52;;;5.10;99.90;;;;;;5089763;28;20439;-83
2022/06/13 13:18:33;;;;;;;20.67;15.73;;;5.10;99.90;;;;;;5089811;28;20365;-83
2022/06/13 13:21:26;;;;;;;17.50;13.60;;;5.10;99.90;;;;;;5089759;28;20878;-82
2022/06/13 13:24:01;;;;;;;18.20;13.40;;;5.30;99.90;;;;;;5089402;28;20368;-83
2022/06/13 13:26:47;;;;;;;22.92;18.30;;;5.30;99.90;;;;;;5089713;28;20368;-83
2022/06/13 13:29:39;;;;;;;19.05;14.10;;;5.30;99.90;;;;;;5089522;28;20371;-83
2022/06/13 13:32:31;;;;;;;13.73;10.57;;;5.20;99.90;;;;;;5089989;28;20368;-83
2022/06/13 13:35:14;;;;;;;11.80;9.82;;;5.10;99.90;;;;;;5089234;28;20372;-83
2022/06/13 13:37:53;;;;;;;11.77;9.82;;;4.90;99.90;;;;;;5089544;28;20763;-83
2022/06/13 13:40:35;;;;;;;12.55;9.48;;;4.90;99.90;;;;;;5089619;28;20396;-84
2022/06/13 13:43:14;;;;;;;18.35;15.10;;;4.80;99.90;;;;;;5089283;28;20836;-83
2022/06/13 13:46:14;;;;;;;21.67;19.30;;;4.80;99.90;;;;;;5089131;28;20369;-83
2022/06/13 13:48:57;;;;;;;13.35;11.95;;;4.80;99.90;;;;;;5088496;28;20469;-83
2022/06/13 13:51:40;;;;;;;13.60;11.85;;;4.70;99.90;;;;;;5089488;28;20368;-84
2022/06/13 13:54:24;;;;;;;12.73;10.45;;;4.80;99.90;;;;;;5088731;28;20379;-83
2022/06/13 13:57:03;;;;;;;10.93;9.70;;;4.90;99.90;;;;;;5088551;28;20840;-83
2022/06/13 13:59:33;;;;;;;11.73;9.15;;;5.00;99.90;;;;;;5088655;28;20558;-84
2022/06/13 14:02:26;;;;;;;13.05;11.05;;;5.00;99.90;;;;;;5088661;28;20361;-83
2022/06/13 14:05:34;;;;;;;13.98;12.50;;;4.90;99.90;;;;;;5088872;28;20368;-83
2022/06/13 14:08:25;;;;;;;12.55;11.25;;;4.90;99.90;;;;;;5088856;28;20380;-83
2022/06/13 14:10:55;;;;;;;11.15;9.20;;;5.00;99.90;;;;;;5089258;28;20372;-83